EWG59L EPGD-EDDH
Flight info
| Callsign | EWG59L |
|---|---|
| Flight time | 1h 31m |
| Altitude | 34000 |
| Route | DEXIR T671 AGODU DCT BODLA L733 TABOK DCT RADEL DCT PODUS L619 BUMIL/N0373F240 M748 RARUP RARUP6A |
| Aircraft | A320/M-SDE3FGHIRWY/LB1 |
Departure
| Time | 2026-04-30 19:06 |
|---|---|
| Airport | Gdańsk Lech Wałęsa Airport (EPGD) |
Arrival
| Time | 2026-04-30 20:38 |
|---|---|
| Airport | Hamburg Helmut Schmidt Airport (EDDH) |
| Time | Latitude | Longitude | Altitude | Speed | Heading |
|---|---|---|---|---|---|
| 2026-04-30 18:21 | 54.38162 | 18.46452 | 468 ft | 0 kts | 24° |
| 2026-04-30 18:58 | 54.38135 | 18.46431 | 467 ft | 2 kts | 24° |
| 2026-04-30 18:58 | 54.38120 | 18.46420 | 470 ft | 2 kts | 24° |
| 2026-04-30 18:58 | 54.38105 | 18.46408 | 468 ft | 2 kts | 24° |
| 2026-04-30 18:59 | 54.38107 | 18.46424 | 465 ft | 2 kts | 69° |
| 2026-04-30 19:00 | 54.38104 | 18.46447 | 470 ft | 0 kts | 108° |
| 2026-04-30 19:02 | 54.38063 | 18.46619 | 472 ft | 6 kts | 149° |
| 2026-04-30 19:02 | 54.37953 | 18.46580 | 470 ft | 8 kts | 155° |
| 2026-04-30 19:03 | 54.37864 | 18.46908 | 474 ft | 29 kts | 113° |
| 2026-04-30 19:03 | 54.37704 | 18.47550 | 475 ft | 29 kts | 112° |
| 2026-04-30 19:04 | 54.37547 | 18.48189 | 480 ft | 29 kts | 112° |
| 2026-04-30 19:04 | 54.37390 | 18.48817 | 491 ft | 29 kts | 110° |
| 2026-04-30 19:05 | 54.37270 | 18.49261 | 494 ft | 8 kts | 153° |
| 2026-04-30 19:05 | 54.37168 | 18.49187 | 490 ft | 9 kts | 224° |
| 2026-04-30 19:06 | 54.37311 | 18.48422 | 488 ft | 90 kts | 293° |
| 2026-04-30 19:06 | 54.37638 | 18.47114 | 476 ft | 145 kts | 293° |
| 2026-04-30 19:06 | 54.38438 | 18.43830 | 1829 ft | 143 kts | 296° |
| 2026-04-30 19:07 | 54.39221 | 18.40673 | 3064 ft | 145 kts | 298° |
| 2026-04-30 19:07 | 54.39614 | 18.39079 | 3638 ft | 146 kts | 298° |
| 2026-04-30 19:08 | 54.40516 | 18.35452 | 4255 ft | 187 kts | 297° |
| 2026-04-30 19:08 | 54.41653 | 18.30858 | 4966 ft | 227 kts | 297° |
| 2026-04-30 19:08 | 54.42266 | 18.28352 | 5771 ft | 229 kts | 297° |
| 2026-04-30 19:09 | 54.43356 | 18.23111 | 7293 ft | 244 kts | 276° |
| 2026-04-30 19:09 | 54.42923 | 18.20231 | 7969 ft | 263 kts | 241° |
| 2026-04-30 19:09 | 54.41533 | 18.17967 | 8302 ft | 292 kts | 212° |
| 2026-04-30 19:10 | 54.37723 | 18.14914 | 9618 ft | 312 kts | 207° |
| 2026-04-30 19:10 | 54.34423 | 18.10026 | 10743 ft | 330 kts | 242° |
| 2026-04-30 19:11 | 54.33476 | 18.06334 | 10965 ft | 348 kts | 256° |
| 2026-04-30 19:11 | 54.31851 | 17.97936 | 11271 ft | 394 kts | 255° |
| 2026-04-30 19:11 | 54.30930 | 17.93376 | 11426 ft | 414 kts | 254° |
| 2026-04-30 19:12 | 54.29951 | 17.88657 | 11734 ft | 426 kts | 253° |
| 2026-04-30 19:12 | 54.28941 | 17.83862 | 12227 ft | 432 kts | 253° |
| 2026-04-30 19:12 | 54.27975 | 17.78966 | 12757 ft | 436 kts | 256° |
| 2026-04-30 19:13 | 54.26286 | 17.68897 | 13807 ft | 444 kts | 259° |
| 2026-04-30 19:13 | 54.24686 | 17.58589 | 14739 ft | 453 kts | 258° |
| 2026-04-30 19:13 | 54.23851 | 17.53374 | 15204 ft | 457 kts | 258° |
| 2026-04-30 19:14 | 54.22988 | 17.48134 | 15669 ft | 460 kts | 257° |
| 2026-04-30 19:14 | 54.21871 | 17.42957 | 16109 ft | 468 kts | 248° |
| 2026-04-30 19:14 | 54.20406 | 17.37971 | 16556 ft | 472 kts | 246° |
| 2026-04-30 19:14 | 54.18915 | 17.32935 | 16998 ft | 476 kts | 246° |
| 2026-04-30 19:15 | 54.17444 | 17.27937 | 17433 ft | 479 kts | 246° |
| 2026-04-30 19:15 | 54.14445 | 17.17712 | 18289 ft | 485 kts | 246° |
| 2026-04-30 19:15 | 54.12925 | 17.12553 | 18698 ft | 488 kts | 246° |
| 2026-04-30 19:16 | 54.11393 | 17.07373 | 19050 ft | 491 kts | 246° |
| 2026-04-30 19:16 | 54.09932 | 17.02109 | 19410 ft | 491 kts | 252° |
| 2026-04-30 19:16 | 54.07944 | 16.90996 | 20121 ft | 491 kts | 258° |
| 2026-04-30 19:17 | 54.07009 | 16.85335 | 20471 ft | 493 kts | 258° |
| 2026-04-30 19:17 | 54.05137 | 16.74113 | 21140 ft | 497 kts | 258° |
| 2026-04-30 19:17 | 54.04182 | 16.68447 | 21455 ft | 499 kts | 258° |
| 2026-04-30 19:18 | 54.02584 | 16.59003 | 21961 ft | 502 kts | 258° |
| 2026-04-30 19:18 | 54.01283 | 16.51339 | 22364 ft | 505 kts | 258° |
| 2026-04-30 19:18 | 54.00305 | 16.45591 | 22672 ft | 507 kts | 258° |
| 2026-04-30 19:19 | 53.99319 | 16.39832 | 22981 ft | 508 kts | 258° |
| 2026-04-30 19:19 | 53.98328 | 16.34069 | 23271 ft | 510 kts | 258° |
| 2026-04-30 19:19 | 53.96317 | 16.22456 | 23826 ft | 513 kts | 258° |
| 2026-04-30 19:20 | 53.95302 | 16.16646 | 24070 ft | 516 kts | 256° |
| 2026-04-30 19:20 | 53.93973 | 16.10955 | 24282 ft | 522 kts | 247° |
| 2026-04-30 19:20 | 53.90187 | 16.00456 | 24853 ft | 525 kts | 239° |
| 2026-04-30 19:21 | 53.88205 | 15.95264 | 25171 ft | 524 kts | 240° |
| 2026-04-30 19:21 | 53.84258 | 15.84908 | 25827 ft | 523 kts | 240° |
| 2026-04-30 19:22 | 53.80313 | 15.74593 | 26505 ft | 521 kts | 240° |
| 2026-04-30 19:22 | 53.74397 | 15.59249 | 27594 ft | 518 kts | 239° |
| 2026-04-30 19:23 | 53.68494 | 15.44028 | 28712 ft | 515 kts | 239° |
| 2026-04-30 19:24 | 53.64572 | 15.33973 | 29482 ft | 513 kts | 239° |
| 2026-04-30 19:24 | 53.62607 | 15.28952 | 29868 ft | 511 kts | 239° |
| 2026-04-30 19:24 | 53.58701 | 15.18986 | 30621 ft | 509 kts | 239° |
| 2026-04-30 19:25 | 53.52852 | 15.04138 | 31596 ft | 506 kts | 239° |
| 2026-04-30 19:26 | 53.48953 | 14.94267 | 32044 ft | 508 kts | 239° |
| 2026-04-30 19:26 | 53.45031 | 14.84389 | 32614 ft | 508 kts | 239° |
| 2026-04-30 19:26 | 53.43066 | 14.79473 | 32923 ft | 507 kts | 239° |
| 2026-04-30 19:27 | 53.39147 | 14.69684 | 33538 ft | 505 kts | 239° |
| 2026-04-30 19:27 | 53.35884 | 14.59435 | 34080 ft | 494 kts | 259° |
| 2026-04-30 19:28 | 53.35336 | 14.53829 | 34336 ft | 485 kts | 272° |
| 2026-04-30 19:29 | 53.34889 | 14.33239 | 34423 ft | 485 kts | 270° |
| 2026-04-30 19:30 | 53.33201 | 14.08984 | 34432 ft | 485 kts | 267° |
| 2026-04-30 19:31 | 53.31869 | 13.88400 | 34419 ft | 484 kts | 268° |
| 2026-04-30 19:31 | 53.30782 | 13.71630 | 34439 ft | 483 kts | 267° |
| 2026-04-30 19:32 | 53.30021 | 13.60475 | 34440 ft | 483 kts | 267° |
| 2026-04-30 19:32 | 53.29249 | 13.49398 | 34434 ft | 483 kts | 267° |
| 2026-04-30 19:33 | 53.28477 | 13.38263 | 34433 ft | 482 kts | 267° |
| 2026-04-30 19:33 | 53.27696 | 13.27157 | 34432 ft | 481 kts | 266° |
| 2026-04-30 19:34 | 53.26900 | 13.16050 | 34426 ft | 481 kts | 266° |
| 2026-04-30 19:35 | 53.25697 | 12.99439 | 34425 ft | 480 kts | 266° |
| 2026-04-30 19:35 | 53.24880 | 12.88372 | 34423 ft | 480 kts | 266° |
| 2026-04-30 19:36 | 53.24054 | 12.77341 | 34427 ft | 480 kts | 266° |
| 2026-04-30 19:36 | 53.22808 | 12.60787 | 34431 ft | 479 kts | 266° |
| 2026-04-30 19:37 | 53.21967 | 12.49759 | 34435 ft | 479 kts | 265° |
| 2026-04-30 19:37 | 53.21107 | 12.38736 | 34441 ft | 478 kts | 265° |
| 2026-04-30 19:38 | 53.20231 | 12.27745 | 34438 ft | 478 kts | 265° |
| 2026-04-30 19:38 | 53.19355 | 12.16846 | 34435 ft | 477 kts | 265° |
| 2026-04-30 19:39 | 53.18475 | 12.05871 | 34440 ft | 477 kts | 265° |
| 2026-04-30 19:39 | 53.17589 | 11.94924 | 34433 ft | 476 kts | 265° |
| 2026-04-30 19:40 | 53.16687 | 11.84032 | 34015 ft | 470 kts | 265° |
| 2026-04-30 19:40 | 53.16185 | 11.78646 | 32509 ft | 473 kts | 259° |
| 2026-04-30 19:40 | 53.14995 | 11.73471 | 31152 ft | 486 kts | 242° |
| 2026-04-30 19:41 | 53.12932 | 11.68992 | 30153 ft | 493 kts | 225° |
| 2026-04-30 19:41 | 53.10194 | 11.65533 | 28994 ft | 498 kts | 209° |
| 2026-04-30 19:41 | 53.06976 | 11.63372 | 27795 ft | 501 kts | 193° |
| 2026-04-30 19:41 | 53.03528 | 11.62707 | 26736 ft | 499 kts | 176° |
| 2026-04-30 19:42 | 53.00094 | 11.62954 | 26235 ft | 488 kts | 175° |
| 2026-04-30 19:42 | 52.96739 | 11.63223 | 25799 ft | 476 kts | 175° |
| 2026-04-30 19:42 | 52.93473 | 11.63470 | 25435 ft | 465 kts | 175° |
| 2026-04-30 19:42 | 52.90287 | 11.63132 | 25160 ft | 456 kts | 190° |
| 2026-04-30 19:43 | 52.87332 | 11.61415 | 24920 ft | 445 kts | 208° |
| 2026-04-30 19:43 | 52.84894 | 11.58431 | 24686 ft | 432 kts | 227° |
| 2026-04-30 19:43 | 52.83171 | 11.54486 | 24475 ft | 416 kts | 247° |
| 2026-04-30 19:44 | 52.82398 | 11.45675 | 24378 ft | 374 kts | 285° |
| 2026-04-30 19:44 | 52.83161 | 11.41741 | 24173 ft | 354 kts | 303° |
| 2026-04-30 19:44 | 52.84520 | 11.38452 | 24054 ft | 332 kts | 319° |
| 2026-04-30 19:44 | 52.86219 | 11.36053 | 23925 ft | 313 kts | 333° |
| 2026-04-30 19:45 | 52.88084 | 11.34511 | 23768 ft | 296 kts | 346° |
| 2026-04-30 19:45 | 52.90064 | 11.33736 | 23469 ft | 286 kts | 357° |
| 2026-04-30 19:45 | 52.92003 | 11.33299 | 23112 ft | 284 kts | 356° |
| 2026-04-30 19:45 | 52.93960 | 11.32846 | 22748 ft | 283 kts | 356° |
| 2026-04-30 19:46 | 52.95901 | 11.32393 | 22412 ft | 281 kts | 356° |
| 2026-04-30 19:46 | 52.97825 | 11.31944 | 22092 ft | 279 kts | 356° |
| 2026-04-30 19:46 | 52.99747 | 11.31494 | 21855 ft | 279 kts | 356° |
| 2026-04-30 19:46 | 53.01669 | 11.31040 | 21622 ft | 278 kts | 356° |
| 2026-04-30 19:47 | 53.03583 | 11.30586 | 21391 ft | 277 kts | 356° |
| 2026-04-30 19:47 | 53.04868 | 11.30283 | 21220 ft | 276 kts | 356° |
| 2026-04-30 19:47 | 53.07381 | 11.29692 | 20887 ft | 275 kts | 356° |
| 2026-04-30 19:47 | 53.09258 | 11.29135 | 20639 ft | 275 kts | 351° |
| 2026-04-30 19:48 | 53.11103 | 11.28256 | 20390 ft | 276 kts | 346° |
| 2026-04-30 19:48 | 53.12892 | 11.27056 | 20146 ft | 278 kts | 340° |
| 2026-04-30 19:48 | 53.14607 | 11.25538 | 19899 ft | 281 kts | 334° |
| 2026-04-30 19:48 | 53.16234 | 11.23734 | 19666 ft | 281 kts | 331° |
| 2026-04-30 19:49 | 53.17839 | 11.21879 | 19414 ft | 280 kts | 331° |
| 2026-04-30 19:49 | 53.21033 | 11.18194 | 18947 ft | 278 kts | 331° |
| 2026-04-30 19:49 | 53.22624 | 11.16357 | 18707 ft | 278 kts | 331° |
| 2026-04-30 19:50 | 53.24207 | 11.14528 | 18433 ft | 277 kts | 331° |
| 2026-04-30 19:50 | 53.25792 | 11.12695 | 18159 ft | 276 kts | 331° |
| 2026-04-30 19:50 | 53.27373 | 11.10859 | 17908 ft | 276 kts | 331° |
| 2026-04-30 19:50 | 53.28943 | 11.09037 | 17640 ft | 275 kts | 331° |
| 2026-04-30 19:51 | 53.30514 | 11.07216 | 17374 ft | 275 kts | 331° |
| 2026-04-30 19:51 | 53.32079 | 11.05397 | 17117 ft | 274 kts | 330° |
| 2026-04-30 19:51 | 53.33643 | 11.03579 | 16861 ft | 273 kts | 330° |
| 2026-04-30 19:51 | 53.35204 | 11.01758 | 16606 ft | 273 kts | 330° |
| 2026-04-30 19:52 | 53.36757 | 10.99943 | 16355 ft | 273 kts | 330° |
| 2026-04-30 19:52 | 53.38313 | 10.98123 | 16103 ft | 272 kts | 330° |
| 2026-04-30 19:52 | 53.39865 | 10.96310 | 15851 ft | 272 kts | 330° |
| 2026-04-30 19:52 | 53.41414 | 10.94504 | 15602 ft | 271 kts | 330° |
| 2026-04-30 19:53 | 53.42965 | 10.92691 | 15360 ft | 271 kts | 330° |
| 2026-04-30 19:53 | 53.44509 | 10.90883 | 15118 ft | 270 kts | 330° |
| 2026-04-30 19:53 | 53.46046 | 10.89082 | 14874 ft | 269 kts | 330° |
| 2026-04-30 19:53 | 53.47580 | 10.87278 | 14629 ft | 269 kts | 330° |
| 2026-04-30 19:54 | 53.49109 | 10.85480 | 14472 ft | 268 kts | 330° |
| 2026-04-30 19:54 | 53.50638 | 10.83684 | 14446 ft | 268 kts | 330° |
| 2026-04-30 19:54 | 53.52167 | 10.81887 | 14448 ft | 268 kts | 330° |
| 2026-04-30 19:54 | 53.53694 | 10.80094 | 14447 ft | 268 kts | 330° |
| 2026-04-30 19:55 | 53.55223 | 10.78296 | 14447 ft | 269 kts | 330° |
| 2026-04-30 19:55 | 53.56735 | 10.76515 | 14446 ft | 269 kts | 330° |
| 2026-04-30 19:55 | 53.58286 | 10.74684 | 14450 ft | 269 kts | 330° |
| 2026-04-30 19:55 | 53.59796 | 10.72894 | 14453 ft | 269 kts | 329° |
| 2026-04-30 19:56 | 53.61322 | 10.71078 | 14454 ft | 269 kts | 329° |
| 2026-04-30 19:56 | 53.62851 | 10.69267 | 14453 ft | 269 kts | 330° |
| 2026-04-30 19:56 | 53.64384 | 10.67452 | 14456 ft | 269 kts | 329° |
| 2026-04-30 19:56 | 53.65934 | 10.65692 | 14454 ft | 266 kts | 339° |
| 2026-04-30 19:57 | 53.67667 | 10.64899 | 14458 ft | 256 kts | 4° |
| 2026-04-30 19:57 | 53.69383 | 10.65375 | 14460 ft | 248 kts | 26° |
| 2026-04-30 19:57 | 53.70810 | 10.66926 | 14462 ft | 243 kts | 48° |
| 2026-04-30 19:57 | 53.71755 | 10.69261 | 14461 ft | 242 kts | 68° |
| 2026-04-30 19:58 | 53.72099 | 10.72025 | 14465 ft | 243 kts | 89° |
| 2026-04-30 19:58 | 53.71961 | 10.74888 | 14465 ft | 245 kts | 95° |
| 2026-04-30 19:58 | 53.71719 | 10.77743 | 14463 ft | 246 kts | 96° |
| 2026-04-30 19:58 | 53.71447 | 10.80591 | 14465 ft | 246 kts | 97° |
| 2026-04-30 19:59 | 53.71112 | 10.83385 | 14460 ft | 248 kts | 107° |
| 2026-04-30 19:59 | 53.70215 | 10.85939 | 14459 ft | 255 kts | 129° |
| 2026-04-30 19:59 | 53.66926 | 10.88225 | 14458 ft | 274 kts | 181° |
| 2026-04-30 20:00 | 53.65085 | 10.87311 | 14456 ft | 282 kts | 209° |
| 2026-04-30 20:00 | 53.63664 | 10.85042 | 14457 ft | 286 kts | 239° |
| 2026-04-30 20:00 | 53.63015 | 10.81905 | 14459 ft | 285 kts | 268° |
| 2026-04-30 20:00 | 53.63157 | 10.78604 | 14459 ft | 283 kts | 281° |
| 2026-04-30 20:01 | 53.63752 | 10.72031 | 14457 ft | 284 kts | 282° |
| 2026-04-30 20:01 | 53.64064 | 10.68744 | 14459 ft | 284 kts | 282° |
| 2026-04-30 20:01 | 53.64559 | 10.65559 | 14452 ft | 279 kts | 301° |
| 2026-04-30 20:02 | 53.67270 | 10.61478 | 14456 ft | 261 kts | 348° |
| 2026-04-30 20:02 | 53.69034 | 10.61079 | 14455 ft | 253 kts | 9° |
| 2026-04-30 20:03 | 53.72083 | 10.63459 | 14463 ft | 243 kts | 49° |
| 2026-04-30 20:03 | 53.73000 | 10.65823 | 14463 ft | 242 kts | 69° |
| 2026-04-30 20:03 | 53.73359 | 10.68587 | 14471 ft | 243 kts | 87° |
| 2026-04-30 20:03 | 53.73250 | 10.71451 | 14467 ft | 245 kts | 94° |
| 2026-04-30 20:04 | 53.73014 | 10.74308 | 14463 ft | 246 kts | 96° |
| 2026-04-30 20:04 | 53.72740 | 10.77168 | 14464 ft | 246 kts | 97° |
| 2026-04-30 20:04 | 53.72460 | 10.80017 | 14463 ft | 246 kts | 96° |
| 2026-04-30 20:05 | 53.71663 | 10.85623 | 14465 ft | 251 kts | 115° |
| 2026-04-30 20:05 | 53.70565 | 10.87944 | 14457 ft | 258 kts | 136° |
| 2026-04-30 20:05 | 53.67135 | 10.89810 | 14459 ft | 275 kts | 182° |
| 2026-04-30 20:06 | 53.65292 | 10.88850 | 14456 ft | 282 kts | 208° |
| 2026-04-30 20:06 | 53.63821 | 10.86648 | 14457 ft | 286 kts | 235° |
| 2026-04-30 20:06 | 53.63028 | 10.83605 | 14455 ft | 286 kts | 262° |
| 2026-04-30 20:06 | 53.63014 | 10.80287 | 14461 ft | 283 kts | 279° |
| 2026-04-30 20:07 | 53.63271 | 10.76991 | 14453 ft | 284 kts | 281° |
| 2026-04-30 20:07 | 53.63573 | 10.73707 | 14456 ft | 284 kts | 282° |
| 2026-04-30 20:07 | 53.64223 | 10.67141 | 14454 ft | 283 kts | 287° |
| 2026-04-30 20:08 | 53.65026 | 10.64230 | 14455 ft | 275 kts | 313° |
| 2026-04-30 20:08 | 53.66421 | 10.62139 | 14456 ft | 266 kts | 336° |
| 2026-04-30 20:08 | 53.68151 | 10.61142 | 14456 ft | 257 kts | 359° |
| 2026-04-30 20:08 | 53.69912 | 10.61311 | 14356 ft | 252 kts | 19° |
| 2026-04-30 20:09 | 53.71448 | 10.62524 | 14104 ft | 245 kts | 40° |
| 2026-04-30 20:09 | 53.72619 | 10.64601 | 13837 ft | 240 kts | 59° |
| 2026-04-30 20:09 | 53.73335 | 10.69937 | 13461 ft | 241 kts | 92° |
| 2026-04-30 20:10 | 53.72890 | 10.75567 | 13464 ft | 243 kts | 97° |
| 2026-04-30 20:10 | 53.72612 | 10.78386 | 13464 ft | 243 kts | 97° |
| 2026-04-30 20:10 | 53.72336 | 10.81199 | 13463 ft | 243 kts | 97° |
| 2026-04-30 20:11 | 53.71291 | 10.86597 | 13462 ft | 249 kts | 123° |
| 2026-04-30 20:11 | 53.70019 | 10.88614 | 13457 ft | 256 kts | 144° |
| 2026-04-30 20:11 | 53.68339 | 10.89713 | 13457 ft | 264 kts | 167° |
| 2026-04-30 20:12 | 53.64756 | 10.88278 | 13456 ft | 279 kts | 216° |
| 2026-04-30 20:12 | 53.63490 | 10.85817 | 13454 ft | 281 kts | 243° |
| 2026-04-30 20:12 | 53.62933 | 10.82682 | 13456 ft | 280 kts | 269° |
| 2026-04-30 20:13 | 53.63100 | 10.79442 | 13457 ft | 279 kts | 282° |
| 2026-04-30 20:13 | 53.63398 | 10.76216 | 13456 ft | 279 kts | 281° |
| 2026-04-30 20:13 | 53.63695 | 10.72976 | 13429 ft | 281 kts | 281° |
| 2026-04-30 20:13 | 53.63991 | 10.69725 | 13161 ft | 280 kts | 281° |
| 2026-04-30 20:14 | 53.64346 | 10.66518 | 12900 ft | 276 kts | 292° |
| 2026-04-30 20:14 | 53.65274 | 10.63777 | 12643 ft | 266 kts | 317° |
| 2026-04-30 20:14 | 53.66725 | 10.61980 | 12478 ft | 256 kts | 341° |
| 2026-04-30 20:14 | 53.68416 | 10.61301 | 12458 ft | 248 kts | 3° |
| 2026-04-30 20:15 | 53.70095 | 10.61725 | 12454 ft | 243 kts | 24° |
| 2026-04-30 20:15 | 53.71536 | 10.63136 | 12463 ft | 238 kts | 44° |
| 2026-04-30 20:15 | 53.72268 | 10.64507 | 12464 ft | 237 kts | 57° |
| 2026-04-30 20:15 | 53.73041 | 10.67907 | 12466 ft | 237 kts | 83° |
| 2026-04-30 20:16 | 53.73004 | 10.70726 | 12467 ft | 239 kts | 94° |
| 2026-04-30 20:16 | 53.72791 | 10.73478 | 12464 ft | 239 kts | 96° |
| 2026-04-30 20:16 | 53.72526 | 10.76250 | 12460 ft | 239 kts | 97° |
| 2026-04-30 20:16 | 53.72251 | 10.79013 | 12460 ft | 239 kts | 97° |
| 2026-04-30 20:17 | 53.71976 | 10.81810 | 12463 ft | 239 kts | 97° |
| 2026-04-30 20:17 | 53.71596 | 10.84496 | 12457 ft | 240 kts | 110° |
| 2026-04-30 20:17 | 53.70707 | 10.86886 | 12457 ft | 245 kts | 130° |
| 2026-04-30 20:17 | 53.69322 | 10.88634 | 12308 ft | 254 kts | 152° |
| 2026-04-30 20:18 | 53.67603 | 10.89345 | 12054 ft | 259 kts | 175° |
| 2026-04-30 20:18 | 53.65817 | 10.88836 | 11804 ft | 264 kts | 200° |
| 2026-04-30 20:18 | 53.64279 | 10.87139 | 11559 ft | 267 kts | 225° |
| 2026-04-30 20:18 | 53.63275 | 10.84529 | 11442 ft | 268 kts | 251° |
| 2026-04-30 20:19 | 53.62972 | 10.81463 | 11449 ft | 266 kts | 276° |
| 2026-04-30 20:19 | 53.63120 | 10.79414 | 11461 ft | 266 kts | 281° |
| 2026-04-30 20:19 | 53.63401 | 10.76327 | 11446 ft | 267 kts | 281° |
| 2026-04-30 20:19 | 53.63600 | 10.73228 | 11452 ft | 268 kts | 270° |
| 2026-04-30 20:20 | 53.63474 | 10.70096 | 11237 ft | 267 kts | 265° |
| 2026-04-30 20:20 | 53.63278 | 10.66994 | 10952 ft | 266 kts | 265° |
| 2026-04-30 20:20 | 53.63075 | 10.63905 | 10646 ft | 266 kts | 264° |
| 2026-04-30 20:20 | 53.62870 | 10.60765 | 10222 ft | 271 kts | 264° |
| 2026-04-30 20:21 | 53.62668 | 10.57608 | 9878 ft | 271 kts | 264° |
| 2026-04-30 20:21 | 53.62468 | 10.54463 | 9551 ft | 270 kts | 264° |
| 2026-04-30 20:21 | 53.62271 | 10.51332 | 9226 ft | 268 kts | 264° |
| 2026-04-30 20:21 | 53.62081 | 10.48257 | 8906 ft | 267 kts | 264° |
| 2026-04-30 20:22 | 53.61891 | 10.45155 | 8581 ft | 266 kts | 264° |
| 2026-04-30 20:22 | 53.61702 | 10.42068 | 8251 ft | 264 kts | 264° |
| 2026-04-30 20:22 | 53.61517 | 10.39000 | 7919 ft | 263 kts | 264° |
| 2026-04-30 20:22 | 53.61335 | 10.35943 | 7611 ft | 262 kts | 264° |
| 2026-04-30 20:23 | 53.61155 | 10.32898 | 7295 ft | 260 kts | 264° |
| 2026-04-30 20:23 | 53.60980 | 10.29872 | 6983 ft | 259 kts | 264° |
| 2026-04-30 20:23 | 53.60810 | 10.26858 | 6652 ft | 258 kts | 264° |
| 2026-04-30 20:23 | 53.60544 | 10.23892 | 6325 ft | 255 kts | 249° |
| 2026-04-30 20:24 | 53.59737 | 10.21271 | 6006 ft | 251 kts | 236° |
| 2026-04-30 20:24 | 53.58791 | 10.18806 | 5685 ft | 249 kts | 234° |
| 2026-04-30 20:24 | 53.57836 | 10.16383 | 5386 ft | 247 kts | 234° |
| 2026-04-30 20:24 | 53.56876 | 10.13997 | 5090 ft | 244 kts | 232° |
| 2026-04-30 20:25 | 53.54789 | 10.09522 | 5013 ft | 244 kts | 229° |
| 2026-04-30 20:25 | 53.53730 | 10.07296 | 4999 ft | 244 kts | 229° |
| 2026-04-30 20:26 | 53.51623 | 10.02871 | 5008 ft | 244 kts | 229° |
| 2026-04-30 20:26 | 53.49505 | 9.98418 | 5006 ft | 244 kts | 229° |
| 2026-04-30 20:26 | 53.48449 | 9.96194 | 5005 ft | 244 kts | 229° |
| 2026-04-30 20:27 | 53.46337 | 9.91742 | 5013 ft | 244 kts | 229° |
| 2026-04-30 20:27 | 53.44227 | 9.87294 | 5018 ft | 243 kts | 229° |
| 2026-04-30 20:28 | 53.42121 | 9.82851 | 5015 ft | 244 kts | 229° |
| 2026-04-30 20:28 | 53.40017 | 9.78402 | 5011 ft | 243 kts | 230° |
| 2026-04-30 20:29 | 53.39343 | 9.73009 | 4996 ft | 247 kts | 287° |
| 2026-04-30 20:30 | 53.41294 | 9.65022 | 4993 ft | 242 kts | 294° |
| 2026-04-30 20:30 | 53.43895 | 9.58936 | 5031 ft | 203 kts | 332° |
| 2026-04-30 20:31 | 53.47113 | 9.60448 | 5002 ft | 180 kts | 82° |
| 2026-04-30 20:32 | 53.47725 | 9.66725 | 4509 ft | 183 kts | 75° |
| 2026-04-30 20:32 | 53.48972 | 9.70419 | 4063 ft | 185 kts | 54° |
| 2026-04-30 20:33 | 53.49776 | 9.72117 | 3819 ft | 186 kts | 53° |
| 2026-04-30 20:33 | 53.51425 | 9.75449 | 3317 ft | 185 kts | 52° |
| 2026-04-30 20:33 | 53.52250 | 9.77104 | 3069 ft | 185 kts | 52° |
| 2026-04-30 20:34 | 53.53897 | 9.80407 | 2565 ft | 184 kts | 52° |
| 2026-04-30 20:34 | 53.55530 | 9.83687 | 2067 ft | 182 kts | 52° |
| 2026-04-30 20:35 | 53.56338 | 9.85312 | 1832 ft | 181 kts | 52° |
| 2026-04-30 20:35 | 53.57137 | 9.86918 | 1569 ft | 172 kts | 52° |
| 2026-04-30 20:35 | 53.58506 | 9.89664 | 1199 ft | 136 kts | 52° |
| 2026-04-30 20:36 | 53.59113 | 9.90931 | 962 ft | 137 kts | 52° |
| 2026-04-30 20:36 | 53.59727 | 9.92154 | 783 ft | 135 kts | 50° |
| 2026-04-30 20:36 | 53.60959 | 9.94615 | 392 ft | 137 kts | 51° |
| 2026-04-30 20:37 | 53.61558 | 9.95827 | 223 ft | 133 kts | 51° |
| 2026-04-30 20:37 | 53.62151 | 9.97034 | 50 ft | 132 kts | 52° |
| 2026-04-30 20:37 | 53.62668 | 9.98079 | 46 ft | 95 kts | 51° |
| 2026-04-30 20:37 | 53.62988 | 9.98726 | 47 ft | 50 kts | 51° |
| 2026-04-30 20:38 | 53.63089 | 9.99134 | 48 ft | 29 kts | 87° |
| 2026-04-30 20:38 | 53.63086 | 9.99357 | 48 ft | 6 kts | 79° |
| 2026-04-30 20:38 | 53.63086 | 9.99360 | 48 ft | 0 kts | 77° |
| 2026-04-30 20:39 | 53.63177 | 9.99581 | 48 ft | 21 kts | 50° |
| 2026-04-30 20:39 | 53.63230 | 9.99686 | 48 ft | 0 kts | 50° |
| 2026-04-30 20:40 | 53.63232 | 9.99690 | 48 ft | 3 kts | 50° |
| 2026-04-30 20:40 | 53.63234 | 9.99745 | 49 ft | 8 kts | 120° |
| 2026-04-30 20:40 | 53.63162 | 9.99814 | 47 ft | 16 kts | 153° |
| 2026-04-30 20:41 | 53.63153 | 9.99977 | 48 ft | 16 kts | 53° |
| 2026-04-30 20:41 | 53.63233 | 10.00153 | 49 ft | 12 kts | 54° |
| 2026-04-30 20:41 | 53.63207 | 10.00208 | 49 ft | 6 kts | 125° |
| 2026-04-30 20:41 | 53.63202 | 10.00263 | 49 ft | 4 kts | 96° |
| 2026-04-30 20:42 | 53.63204 | 10.00303 | 49 ft | 3 kts | 81° |
| 2026-04-30 20:42 | 53.63208 | 10.00363 | 49 ft | 6 kts | 85° |
| 2026-04-30 20:42 | 53.63209 | 10.00383 | 49 ft | 0 kts | 87° |